createdAt,value
2022-07-25T00:00:01.507Z,16.26
2022-07-25T00:01:01.426Z,16.26
2022-07-25T00:02:01.461Z,16.23
2022-07-25T00:03:01.409Z,16.23
2022-07-25T00:04:01.465Z,16.23
2022-07-25T00:05:01.459Z,16.23
2022-07-25T00:06:01.417Z,16.22
2022-07-25T00:07:02.122Z,16.20
2022-07-25T00:08:02.190Z,16.20
2022-07-25T00:09:02.081Z,16.18
2022-07-25T00:10:02.151Z,16.18
2022-07-25T00:11:02.091Z,16.16
2022-07-25T00:12:01.348Z,16.14
2022-07-25T00:13:01.296Z,16.16
2022-07-25T00:14:01.307Z,16.16
2022-07-25T00:15:01.287Z,16.15
2022-07-25T00:16:01.351Z,16.14
2022-07-25T00:17:01.268Z,16.12
2022-07-25T00:18:01.408Z,16.12
2022-07-25T00:19:01.239Z,16.14
2022-07-25T00:20:01.231Z,16.12
2022-07-25T00:21:01.240Z,16.12
2022-07-25T00:22:01.220Z,16.12
2022-07-25T00:23:01.208Z,16.14
2022-07-25T00:24:01.239Z,16.11
2022-07-25T00:25:01.182Z,16.11
2022-07-25T00:26:01.250Z,16.09
2022-07-25T00:27:01.180Z,16.07
2022-07-25T00:28:01.163Z,16.07
2022-07-25T00:29:01.134Z,16.06
2022-07-25T00:30:01.162Z,16.04
2022-07-25T00:31:01.156Z,16.04
2022-07-25T00:32:01.133Z,16.04
2022-07-25T00:33:01.098Z,16.04
2022-07-25T00:34:01.100Z,16.01
2022-07-25T00:35:01.103Z,16.00
2022-07-25T00:36:01.240Z,16.00
2022-07-25T00:37:01.062Z,16.01
2022-07-25T00:38:01.412Z,16.01
2022-07-25T00:39:01.887Z,16.03
2022-07-25T00:40:01.763Z,16.03
2022-07-25T00:41:01.008Z,16.03
2022-07-25T00:42:01.039Z,16.04
2022-07-25T00:43:00.986Z,16.04
2022-07-25T00:44:00.969Z,16.04
2022-07-25T00:45:01.009Z,16.04
2022-07-25T00:46:00.988Z,16.04
2022-07-25T00:47:00.967Z,16.04
2022-07-25T00:48:00.970Z,16.06
2022-07-25T00:49:01.056Z,16.06
2022-07-25T00:50:00.908Z,16.06
2022-07-25T00:51:00.928Z,16.07
2022-07-25T00:52:00.899Z,16.07
2022-07-25T00:53:00.898Z,16.06
2022-07-25T00:54:02.195Z,16.09
2022-07-25T00:55:02.213Z,16.06
2022-07-25T00:56:01.661Z,16.09
2022-07-25T00:57:01.537Z,16.07
2022-07-25T00:58:01.630Z,16.06
2022-07-25T00:59:01.356Z,16.04
2022-07-25T01:00:01.776Z,16.06
2022-07-25T01:01:01.440Z,16.06
2022-07-25T01:02:03.701Z,16.04
2022-07-25T01:03:00.937Z,16.06
2022-07-25T01:04:02.070Z,16.07
2022-07-25T01:05:00.756Z,16.09
2022-07-25T01:06:00.976Z,16.07
2022-07-25T01:07:00.744Z,16.09
2022-07-25T01:08:00.729Z,16.07
2022-07-25T01:09:00.707Z,16.07
2022-07-25T01:10:00.694Z,16.09
2022-07-25T01:11:00.685Z,16.07
2022-07-25T01:12:00.846Z,16.06
2022-07-25T01:13:00.675Z,16.07
2022-07-25T01:14:00.655Z,16.07
2022-07-25T01:15:00.923Z,16.07
2022-07-25T01:16:00.693Z,16.07
2022-07-25T01:17:00.619Z,16.04
2022-07-25T01:18:00.658Z,16.04
2022-07-25T01:19:00.624Z,16.06
2022-07-25T01:20:00.587Z,16.06
2022-07-25T01:21:00.585Z,16.04
2022-07-25T01:22:00.570Z,16.04
2022-07-25T01:23:00.556Z,16.06
2022-07-25T01:24:01.000Z,16.04
2022-07-25T01:25:00.538Z,16.04
2022-07-25T01:26:00.531Z,16.06
2022-07-25T01:27:00.525Z,16.07
2022-07-25T01:28:00.512Z,16.07
2022-07-25T01:29:00.492Z,16.07
2022-07-25T01:30:00.521Z,16.07
2022-07-25T01:31:00.528Z,16.07
2022-07-25T01:32:00.464Z,16.09
2022-07-25T01:33:00.455Z,16.09
2022-07-25T01:34:01.442Z,16.07
2022-07-25T01:35:00.434Z,16.07
2022-07-25T01:36:00.564Z,16.09
2022-07-25T01:37:00.417Z,16.11
2022-07-25T01:38:00.412Z,16.11
2022-07-25T01:39:00.410Z,16.11
2022-07-25T01:40:00.404Z,16.12
2022-07-25T01:41:00.381Z,16.12
2022-07-25T01:42:00.396Z,16.09
2022-07-25T01:43:00.346Z,16.11
2022-07-25T01:44:00.345Z,16.14
2022-07-25T01:45:00.329Z,16.11
2022-07-25T01:46:00.420Z,16.09
2022-07-25T01:47:00.313Z,16.11
2022-07-25T01:48:00.329Z,16.11
2022-07-25T01:49:00.371Z,16.14
2022-07-25T01:50:00.281Z,16.14
2022-07-25T01:51:00.259Z,16.15
2022-07-25T01:52:00.267Z,16.14
2022-07-25T01:53:00.240Z,16.14
2022-07-25T01:54:00.269Z,16.16
2022-07-25T01:55:00.252Z,16.18
2022-07-25T01:56:00.211Z,16.20
2022-07-25T01:57:00.200Z,16.18
2022-07-25T01:58:00.195Z,16.18
2022-07-25T01:59:00.193Z,16.20
2022-07-25T02:00:00.266Z,16.18
2022-07-25T02:01:00.215Z,16.20
2022-07-25T02:02:00.264Z,16.22
2022-07-25T02:03:00.201Z,16.20
2022-07-25T02:04:00.143Z,16.20
2022-07-25T02:05:00.156Z,16.20
2022-07-25T02:06:00.346Z,16.22
2022-07-25T02:07:00.115Z,16.20
2022-07-25T02:08:00.094Z,16.22
2022-07-25T02:09:00.026Z,16.22
2022-07-25T02:10:00.009Z,16.23
2022-07-25T02:11:00.018Z,16.23
2022-07-25T02:12:00.098Z,16.23
2022-07-25T02:12:59.977Z,16.22
2022-07-25T02:13:59.969Z,16.23
2022-07-25T02:14:59.958Z,16.23
2022-07-25T02:15:59.947Z,16.23
2022-07-25T02:16:59.979Z,16.23
2022-07-25T02:17:59.972Z,16.23
2022-07-25T02:18:59.920Z,16.22
2022-07-25T02:19:59.912Z,16.22
2022-07-25T02:20:59.896Z,16.23
2022-07-25T02:21:59.888Z,16.22
2022-07-25T02:22:59.871Z,16.22
2022-07-25T02:23:59.906Z,16.22
2022-07-25T02:24:59.862Z,16.23
2022-07-25T02:25:59.842Z,16.25
2022-07-25T02:26:59.824Z,16.26
2022-07-25T02:27:59.822Z,16.26
2022-07-25T02:28:59.804Z,16.27
2022-07-25T02:29:59.832Z,16.30
2022-07-25T02:30:59.834Z,16.30
2022-07-25T02:31:59.777Z,16.31
2022-07-25T02:32:59.781Z,16.31
2022-07-25T02:33:59.754Z,16.31
2022-07-25T02:34:59.745Z,16.30
2022-07-25T02:36:00.564Z,16.31
2022-07-25T02:36:59.724Z,16.33
2022-07-25T02:37:59.724Z,16.33
2022-07-25T02:38:59.714Z,16.34
2022-07-25T02:39:59.708Z,16.35
2022-07-25T02:40:59.686Z,16.37
2022-07-25T02:41:59.826Z,16.37
2022-07-25T02:42:59.667Z,16.38
2022-07-25T02:43:59.650Z,16.40
2022-07-25T02:44:59.639Z,16.40
2022-07-25T02:45:59.725Z,16.41
2022-07-25T02:46:59.620Z,16.42
2022-07-25T02:47:59.657Z,16.42
2022-07-25T02:48:59.656Z,16.45
2022-07-25T02:49:59.602Z,16.45
2022-07-25T02:50:59.578Z,16.48
2022-07-25T02:51:59.571Z,16.49
2022-07-25T02:52:59.561Z,16.49
2022-07-25T02:53:59.581Z,16.50
2022-07-25T02:54:59.533Z,16.52
2022-07-25T02:55:59.539Z,16.53
2022-07-25T02:56:59.511Z,16.53
2022-07-25T02:58:00.077Z,16.55
2022-07-25T02:58:59.494Z,16.56
2022-07-25T02:59:59.529Z,16.58
2022-07-25T03:00:59.496Z,16.58
2022-07-25T03:01:59.466Z,16.56
2022-07-25T03:02:59.457Z,16.56
2022-07-25T03:03:59.500Z,16.56
2022-07-25T03:04:59.426Z,16.56
2022-07-25T03:05:59.466Z,16.56
2022-07-25T03:06:59.423Z,16.56
2022-07-25T03:07:59.403Z,16.59
2022-07-25T03:08:59.389Z,16.59
2022-07-25T03:09:59.379Z,16.60
2022-07-25T03:10:59.366Z,16.60
2022-07-25T03:11:59.397Z,16.62
2022-07-25T03:12:59.346Z,16.62
2022-07-25T03:13:59.344Z,16.63
2022-07-25T03:14:59.345Z,16.65
2022-07-25T03:15:59.309Z,16.65
2022-07-25T03:16:59.392Z,16.65
2022-07-25T03:17:59.473Z,16.65
2022-07-25T03:18:59.284Z,16.67
2022-07-25T03:19:59.273Z,16.65
2022-07-25T03:20:59.469Z,16.63
2022-07-25T03:21:59.269Z,16.63
2022-07-25T03:22:59.242Z,16.60
2022-07-25T03:23:59.332Z,16.60
2022-07-25T03:24:59.218Z,16.59
2022-07-25T03:25:59.200Z,16.59
2022-07-25T03:26:59.201Z,16.56
2022-07-25T03:27:59.191Z,16.58
2022-07-25T03:28:59.187Z,16.55
2022-07-25T03:29:59.213Z,16.55
2022-07-25T03:30:59.153Z,16.53
2022-07-25T03:31:59.188Z,16.52
2022-07-25T03:32:59.134Z,16.52
2022-07-25T03:33:59.124Z,16.52
2022-07-25T03:34:59.117Z,16.52
2022-07-25T03:35:59.246Z,16.52
2022-07-25T03:36:59.104Z,16.52
2022-07-25T03:37:59.085Z,16.52
2022-07-25T03:38:59.078Z,16.52
2022-07-25T03:39:59.063Z,16.49
2022-07-25T03:40:59.067Z,16.48
2022-07-25T03:41:59.097Z,16.45
2022-07-25T03:42:59.047Z,16.42
2022-07-25T03:43:59.025Z,16.42
2022-07-25T03:44:59.007Z,16.42
2022-07-25T03:45:59.046Z,16.42
2022-07-25T03:46:58.987Z,16.41
2022-07-25T03:47:59.020Z,16.40
2022-07-25T03:48:59.000Z,16.40
2022-07-25T03:49:58.959Z,16.38
2022-07-25T03:51:02.291Z,16.35
2022-07-25T03:51:59.929Z,16.34
2022-07-25T03:52:58.920Z,16.33
2022-07-25T03:53:58.959Z,16.33
2022-07-25T03:54:58.901Z,16.30
2022-07-25T03:55:58.893Z,16.27
2022-07-25T03:56:58.880Z,16.26
2022-07-25T03:57:58.872Z,16.23
2022-07-25T03:58:58.856Z,16.23
2022-07-25T03:59:58.889Z,16.23
2022-07-25T04:00:58.861Z,16.22
2022-07-25T04:01:58.895Z,16.23
2022-07-25T04:02:58.814Z,16.22
2022-07-25T04:03:58.813Z,16.22
2022-07-25T04:04:58.793Z,16.23
2022-07-25T04:05:58.844Z,16.22
2022-07-25T04:06:58.777Z,16.23
2022-07-25T04:07:58.783Z,16.23
2022-07-25T04:08:58.773Z,16.22
2022-07-25T04:09:58.765Z,16.23
2022-07-25T04:10:58.736Z,16.25
2022-07-25T04:11:58.879Z,16.26
2022-07-25T04:12:58.717Z,16.30
2022-07-25T04:13:58.704Z,16.31
2022-07-25T04:14:58.700Z,16.34
2022-07-25T04:15:58.686Z,16.35
2022-07-25T04:16:58.721Z,16.40
2022-07-25T04:17:58.715Z,16.42
2022-07-25T04:18:58.680Z,16.49
2022-07-25T04:19:58.646Z,16.53
2022-07-25T04:20:58.631Z,16.58
2022-07-25T04:21:58.620Z,16.60
2022-07-25T04:22:58.614Z,16.65
2022-07-25T04:23:58.629Z,16.70
2022-07-25T04:24:58.613Z,16.75
2022-07-25T04:25:58.570Z,16.80
2022-07-25T04:26:58.581Z,16.89
2022-07-25T04:27:58.558Z,16.92
2022-07-25T04:28:58.552Z,16.95
2022-07-25T04:29:58.584Z,16.98
2022-07-25T04:30:58.533Z,17.03
2022-07-25T04:31:58.594Z,17.06
2022-07-25T04:32:58.496Z,17.08
2022-07-25T04:33:58.496Z,17.11
2022-07-25T04:34:58.483Z,17.13
2022-07-25T04:35:58.526Z,17.17
2022-07-25T04:36:58.465Z,17.18
2022-07-25T04:37:58.460Z,17.17
2022-07-25T04:38:58.438Z,17.18
2022-07-25T04:39:58.438Z,17.22
2022-07-25T04:40:58.457Z,17.22
2022-07-25T04:41:58.454Z,17.23
2022-07-25T04:42:58.398Z,17.26
2022-07-25T04:43:58.407Z,17.28
2022-07-25T04:44:58.381Z,17.29
2022-07-25T04:45:58.443Z,17.32
2022-07-25T04:46:58.360Z,17.33
2022-07-25T04:47:58.399Z,17.38
2022-07-25T04:48:58.458Z,17.40
2022-07-25T04:49:58.323Z,17.41
2022-07-25T04:50:58.310Z,17.44
2022-07-25T04:51:58.300Z,17.46
2022-07-25T04:52:58.291Z,17.50
2022-07-25T04:53:58.332Z,17.51
2022-07-25T04:54:58.261Z,17.54
2022-07-25T04:55:58.255Z,17.55
2022-07-25T04:56:58.272Z,17.53
2022-07-25T04:57:58.233Z,17.54
2022-07-25T04:59:01.849Z,17.54
2022-07-25T04:59:59.248Z,17.54
2022-07-25T05:00:58.387Z,17.57
2022-07-25T05:01:58.253Z,17.59
2022-07-25T05:02:58.186Z,17.57
2022-07-25T05:03:58.205Z,17.62
2022-07-25T05:04:58.164Z,17.62
2022-07-25T05:05:58.197Z,17.59
2022-07-25T05:06:58.145Z,17.64
2022-07-25T05:07:58.140Z,17.63
2022-07-25T05:08:58.115Z,17.64
2022-07-25T05:09:58.108Z,17.64
2022-07-25T05:10:58.099Z,17.64
2022-07-25T05:11:58.141Z,17.63
2022-07-25T05:12:58.077Z,17.62
2022-07-25T05:13:58.068Z,17.59
2022-07-25T05:14:58.049Z,17.59
2022-07-25T05:15:58.097Z,17.57
2022-07-25T05:16:58.040Z,17.55
2022-07-25T05:17:58.070Z,17.55
2022-07-25T05:18:58.010Z,17.51
2022-07-25T05:19:58.000Z,17.51
2022-07-25T05:20:57.991Z,17.51
2022-07-25T05:21:57.987Z,17.53
2022-07-25T05:22:57.980Z,17.51
2022-07-25T05:23:58.011Z,17.51
2022-07-25T05:24:58.349Z,17.51
2022-07-25T05:25:57.931Z,17.48
2022-07-25T05:26:57.933Z,17.47
2022-07-25T05:27:58.637Z,17.46
2022-07-25T05:28:57.903Z,17.48
2022-07-25T05:29:57.937Z,17.50
2022-07-25T05:30:57.887Z,17.55
2022-07-25T05:31:57.933Z,17.63
2022-07-25T05:32:57.880Z,17.69
2022-07-25T05:33:57.857Z,17.74
2022-07-25T05:34:57.860Z,17.79
2022-07-25T05:35:57.878Z,17.81
2022-07-25T05:36:57.816Z,17.82
2022-07-25T05:37:57.807Z,17.82
2022-07-25T05:38:57.797Z,17.81
2022-07-25T05:39:57.789Z,17.81
2022-07-25T05:40:57.778Z,17.82
2022-07-25T05:41:57.995Z,17.81
2022-07-25T05:43:02.561Z,17.81
2022-07-25T05:43:58.745Z,17.78
2022-07-25T05:44:57.749Z,17.76
2022-07-25T05:45:57.733Z,17.76
2022-07-25T05:46:57.788Z,17.76
2022-07-25T05:47:57.806Z,17.79
2022-07-25T05:48:57.731Z,17.79
2022-07-25T05:49:57.681Z,17.78
2022-07-25T05:50:57.677Z,17.74
2022-07-25T05:51:57.730Z,17.73
2022-07-25T05:52:57.651Z,17.71
2022-07-25T05:53:57.813Z,17.71
2022-07-25T05:54:57.637Z,17.70
2022-07-25T05:55:57.623Z,17.69
2022-07-25T05:56:57.614Z,17.66
2022-07-25T05:57:57.613Z,17.63
2022-07-25T05:58:57.585Z,17.62
2022-07-25T05:59:57.620Z,17.59
2022-07-25T06:00:57.605Z,17.57
2022-07-25T06:01:57.609Z,17.57
2022-07-25T06:02:57.722Z,17.55
2022-07-25T06:03:57.536Z,17.53
2022-07-25T06:04:57.545Z,17.53
2022-07-25T06:05:57.550Z,17.53
2022-07-25T06:06:57.507Z,17.51
2022-07-25T06:07:57.490Z,17.51
2022-07-25T06:08:57.479Z,17.54
2022-07-25T06:09:57.518Z,17.55
2022-07-25T06:10:57.460Z,17.54
2022-07-25T06:11:59.848Z,17.54
2022-07-25T06:12:57.446Z,17.54
2022-07-25T06:13:57.444Z,17.55
2022-07-25T06:14:57.431Z,17.59
2022-07-25T06:15:57.418Z,17.62
2022-07-25T06:16:57.401Z,17.64
2022-07-25T06:17:57.731Z,17.67
2022-07-25T06:18:57.381Z,17.71
2022-07-25T06:19:57.382Z,17.73
2022-07-25T06:20:57.362Z,17.74
2022-07-25T06:21:57.353Z,17.74
2022-07-25T06:22:57.346Z,17.74
2022-07-25T06:23:57.493Z,17.73
2022-07-25T06:24:57.314Z,17.73
2022-07-25T06:25:57.307Z,17.71
2022-07-25T06:26:57.304Z,17.69
2022-07-25T06:27:57.287Z,17.67
2022-07-25T06:28:57.288Z,17.66
2022-07-25T06:29:57.442Z,17.64
2022-07-25T06:30:57.274Z,17.62
2022-07-25T06:31:57.286Z,17.59
2022-07-25T06:32:57.248Z,17.62
2022-07-25T06:33:57.230Z,17.59
2022-07-25T06:34:57.209Z,17.62
2022-07-25T06:35:57.229Z,17.63
2022-07-25T06:36:57.192Z,17.62
2022-07-25T06:37:57.170Z,17.62
2022-07-25T06:38:57.170Z,17.63
2022-07-25T06:39:57.158Z,17.57
2022-07-25T06:40:57.153Z,17.59
2022-07-25T06:41:57.210Z,17.59
2022-07-25T06:42:57.128Z,17.62
2022-07-25T06:43:57.124Z,17.62
2022-07-25T06:44:57.107Z,17.59
2022-07-25T06:45:57.103Z,17.54
2022-07-25T06:46:57.120Z,17.51
2022-07-25T06:47:57.542Z,17.47
2022-07-25T06:48:57.181Z,17.46
2022-07-25T06:49:57.053Z,17.46
2022-07-25T06:50:57.043Z,17.46
2022-07-25T06:51:57.050Z,17.46
2022-07-25T06:52:57.031Z,17.44
2022-07-25T06:53:57.044Z,17.43
2022-07-25T06:54:56.998Z,17.41
2022-07-25T06:55:56.985Z,17.40
2022-07-25T06:56:56.989Z,17.36
2022-07-25T06:57:56.965Z,17.35
2022-07-25T06:58:56.960Z,17.33
2022-07-25T06:59:56.990Z,17.33
2022-07-25T07:00:57.026Z,17.32
2022-07-25T07:01:56.927Z,17.29
2022-07-25T07:02:56.974Z,17.25
2022-07-25T07:03:56.913Z,17.23
2022-07-25T07:04:56.899Z,17.20
2022-07-25T07:05:57.080Z,17.20
2022-07-25T07:06:56.885Z,17.17
2022-07-25T07:07:56.859Z,17.18
2022-07-25T07:08:56.851Z,17.15
2022-07-25T07:09:56.844Z,17.15
2022-07-25T07:10:56.831Z,17.15
2022-07-25T07:11:56.863Z,17.17
2022-07-25T07:12:56.955Z,17.17
2022-07-25T07:13:56.793Z,17.18
2022-07-25T07:14:56.792Z,17.17
2022-07-25T07:15:56.895Z,17.17
2022-07-25T07:16:56.779Z,17.17
2022-07-25T07:17:56.904Z,17.17
2022-07-25T07:18:56.759Z,17.17
2022-07-25T07:19:56.746Z,17.13
2022-07-25T07:20:56.745Z,17.14
2022-07-25T07:21:56.722Z,17.17
2022-07-25T07:22:56.715Z,17.18
2022-07-25T07:23:56.969Z,17.20
2022-07-25T07:24:56.686Z,17.22
2022-07-25T07:25:56.678Z,17.22
2022-07-25T07:26:56.681Z,17.22
2022-07-25T07:27:56.667Z,17.23
2022-07-25T07:28:56.663Z,17.22
2022-07-25T07:29:56.850Z,17.23
2022-07-25T07:31:15.679Z,17.20
2022-07-25T07:31:57.678Z,17.22
2022-07-25T07:32:56.610Z,17.18
2022-07-25T07:33:56.595Z,17.18
2022-07-25T07:34:56.579Z,17.18
2022-07-25T07:35:56.599Z,17.18
2022-07-25T07:36:56.565Z,17.18
2022-07-25T07:37:56.560Z,17.18
2022-07-25T07:38:56.548Z,17.20
2022-07-25T07:39:56.534Z,17.22
2022-07-25T07:40:56.533Z,17.22
2022-07-25T07:41:57.228Z,17.22
2022-07-25T07:42:56.494Z,17.22
2022-07-25T07:43:56.483Z,17.22
2022-07-25T07:44:56.482Z,17.23
2022-07-25T07:45:56.463Z,17.25
2022-07-25T07:46:56.522Z,17.26
2022-07-25T07:47:56.717Z,17.26
2022-07-25T07:48:56.502Z,17.26
2022-07-25T07:49:56.426Z,17.26
2022-07-25T07:50:56.470Z,17.26
2022-07-25T07:51:56.399Z,17.26
2022-07-25T07:52:56.385Z,17.28
2022-07-25T07:53:56.428Z,17.29
2022-07-25T07:54:59.329Z,17.30
2022-07-25T07:55:56.371Z,17.32
2022-07-25T07:56:56.347Z,17.29
2022-07-25T07:57:56.371Z,17.30
2022-07-25T07:58:56.330Z,17.35
2022-07-25T07:59:56.360Z,17.38
2022-07-25T08:00:56.308Z,17.38
2022-07-25T08:01:56.368Z,17.38
2022-07-25T08:02:56.340Z,17.41
2022-07-25T08:03:56.311Z,17.43
2022-07-25T08:04:56.270Z,17.47
2022-07-25T08:05:56.298Z,17.46
2022-07-25T08:06:56.241Z,17.47
2022-07-25T08:07:56.262Z,17.48
2022-07-25T08:08:56.239Z,17.53
2022-07-25T08:09:56.212Z,17.54
2022-07-25T08:10:58.927Z,17.55
2022-07-25T08:11:56.362Z,17.55
2022-07-25T08:12:56.234Z,17.57
2022-07-25T08:13:56.193Z,17.59
2022-07-25T08:14:56.324Z,17.59
2022-07-25T08:15:56.308Z,17.63
2022-07-25T08:16:56.265Z,17.62
2022-07-25T08:17:56.775Z,17.64
2022-07-25T08:18:56.117Z,17.67
2022-07-25T08:20:05.500Z,17.70
2022-07-25T08:20:57.163Z,17.70
2022-07-25T08:21:56.253Z,17.71
2022-07-25T08:22:56.788Z,17.73
2022-07-25T08:23:56.136Z,17.74
2022-07-25T08:24:57.205Z,17.73
2022-07-25T08:25:56.049Z,17.70
2022-07-25T08:26:56.155Z,17.73
2022-07-25T08:27:56.606Z,17.71
2022-07-25T08:29:17.752Z,17.71
2022-07-25T08:29:57.654Z,17.71
2022-07-25T08:30:56.070Z,17.74
2022-07-25T08:31:55.997Z,17.73
2022-07-25T08:32:56.517Z,17.70
2022-07-25T08:33:56.275Z,17.73
2022-07-25T08:34:55.952Z,17.74
2022-07-25T08:35:56.044Z,17.73
2022-07-25T08:36:55.941Z,17.74
2022-07-25T08:37:55.949Z,17.73
2022-07-25T08:38:55.916Z,17.71
2022-07-25T08:39:55.904Z,17.73
2022-07-25T08:40:55.891Z,17.70
2022-07-25T08:41:55.933Z,17.69
2022-07-25T08:42:55.876Z,17.71
2022-07-25T08:43:55.857Z,17.70
2022-07-25T08:44:55.876Z,17.71
2022-07-25T08:45:55.941Z,17.73
2022-07-25T08:46:55.896Z,17.73
2022-07-25T08:47:55.928Z,17.76
2022-07-25T08:48:55.876Z,17.78
2022-07-25T08:49:58.563Z,17.81
2022-07-25T08:50:56.791Z,17.84
2022-07-25T08:51:55.807Z,17.87
2022-07-25T08:53:10.447Z,17.92
2022-07-25T08:53:58.042Z,17.97
2022-07-25T08:54:59.829Z,17.99
2022-07-25T08:55:57.442Z,18.02
2022-07-25T08:56:59.789Z,18.02
2022-07-25T08:57:57.269Z,18.02
2022-07-25T08:58:55.712Z,18.03
2022-07-25T08:59:55.740Z,18.03
2022-07-25T09:00:55.679Z,18.04
2022-07-25T09:01:55.701Z,18.04
2022-07-25T09:02:55.726Z,18.03
2022-07-25T09:03:55.651Z,18.03
2022-07-25T09:04:55.631Z,18.03
2022-07-25T09:05:55.653Z,18.04
2022-07-25T09:06:55.632Z,18.03
2022-07-25T09:07:55.675Z,18.03
2022-07-25T09:08:55.656Z,18.02
2022-07-25T09:09:55.583Z,18.00
2022-07-25T09:10:55.564Z,18.00
2022-07-25T09:11:55.595Z,18.00
2022-07-25T09:12:55.546Z,17.97
2022-07-25T09:13:55.544Z,17.99
2022-07-25T09:14:55.545Z,17.99
2022-07-25T09:15:55.628Z,17.97
2022-07-25T09:16:55.516Z,17.99
2022-07-25T09:17:55.536Z,18.02
2022-07-25T09:18:55.499Z,18.02
2022-07-25T09:19:55.536Z,18.03
2022-07-25T09:20:55.466Z,18.03
2022-07-25T09:21:55.459Z,18.00
2022-07-25T09:22:55.450Z,18.02
2022-07-25T09:23:55.839Z,18.02
2022-07-25T09:24:55.429Z,18.00
2022-07-25T09:25:55.770Z,17.97
2022-07-25T09:26:56.390Z,17.94
2022-07-25T09:27:56.399Z,17.94
2022-07-25T09:28:55.388Z,17.95
2022-07-25T09:29:55.941Z,18.00
2022-07-25T09:30:56.134Z,17.99
2022-07-25T09:31:55.722Z,18.00
2022-07-25T09:32:56.967Z,17.99
2022-07-25T09:33:57.393Z,18.00
2022-07-25T09:34:59.837Z,17.99
2022-07-25T09:35:58.565Z,18.00
2022-07-25T09:36:55.734Z,18.00
2022-07-25T09:37:55.541Z,18.02
2022-07-25T09:38:55.296Z,18.03
2022-07-25T09:39:55.279Z,18.02
2022-07-25T09:40:55.263Z,18.00
2022-07-25T09:41:55.876Z,18.00
2022-07-25T09:42:55.236Z,17.99
2022-07-25T09:43:55.225Z,18.00
2022-07-25T09:44:55.207Z,18.02
2022-07-25T09:45:55.247Z,18.02
2022-07-25T09:46:55.189Z,18.04
2022-07-25T09:49:01.739Z,18.07
2022-07-25T09:49:07.769Z,18.10
2022-07-25T09:50:07.668Z,18.12
2022-07-25T09:56:35.367Z,18.21
2022-07-25T09:57:35.063Z,18.21
2022-07-25T09:58:35.055Z,18.19
2022-07-25T09:59:35.289Z,18.18
2022-07-25T10:00:35.109Z,18.18
2022-07-25T10:01:35.088Z,18.13
2022-07-25T10:02:35.034Z,18.13
2022-07-25T10:03:35.141Z,18.17
2022-07-25T10:04:35.028Z,18.18
2022-07-25T10:05:35.033Z,18.22
2022-07-25T10:06:34.969Z,18.27
2022-07-25T10:07:34.959Z,18.27
2022-07-25T10:08:34.953Z,18.28
2022-07-25T10:09:34.958Z,18.31
2022-07-25T10:10:34.929Z,18.33
2022-07-25T10:11:35.004Z,18.33
2022-07-25T10:12:34.909Z,18.31
2022-07-25T10:13:34.901Z,18.31
2022-07-25T10:14:34.893Z,18.31
2022-07-25T10:15:34.892Z,18.33
2022-07-25T10:16:34.973Z,18.33
2022-07-25T10:21:43.591Z,18.42
2022-07-25T10:22:58.844Z,18.43
2022-07-25T10:23:44.531Z,18.42
2022-07-25T10:24:43.522Z,18.40
2022-07-25T10:25:47.194Z,18.39
2022-07-25T10:26:45.155Z,18.43
2022-07-25T10:27:43.482Z,18.46
2022-07-25T10:28:43.492Z,18.47
2022-07-25T10:29:43.464Z,18.54
2022-07-25T10:30:43.520Z,18.54
2022-07-25T10:31:49.359Z,18.58
2022-07-25T10:32:44.457Z,18.59
2022-07-25T10:33:43.535Z,18.55
2022-07-25T10:34:43.416Z,18.55
2022-07-25T10:35:43.466Z,18.57
2022-07-25T10:36:43.398Z,18.57
2022-07-25T10:37:48.676Z,18.57
2022-07-25T10:38:44.413Z,18.57
2022-07-25T10:39:43.399Z,18.57
2022-07-25T10:40:43.357Z,18.57
2022-07-25T10:41:44.021Z,18.54
2022-07-25T10:42:43.359Z,18.52
2022-07-25T10:43:48.197Z,18.52
2022-07-25T10:44:44.352Z,18.47
2022-07-25T10:45:43.355Z,18.43
2022-07-25T10:46:43.365Z,18.39
2022-07-25T10:47:43.312Z,18.34
2022-07-25T10:48:43.363Z,18.33
2022-07-25T10:50:00.257Z,18.31
2022-07-25T10:50:55.527Z,18.29
2022-07-25T10:51:44.284Z,18.33
2022-07-25T10:52:43.272Z,18.39
2022-07-25T10:53:43.261Z,18.43
2022-07-25T10:54:43.891Z,18.46
2022-07-25T10:55:43.223Z,18.50
2022-07-25T10:56:43.242Z,18.52
2022-07-25T10:58:07.853Z,18.57
2022-07-25T10:58:44.227Z,18.57
2022-07-25T10:59:43.186Z,18.58
2022-07-25T11:00:43.155Z,18.58
2022-07-25T11:01:43.212Z,18.58
2022-07-25T11:02:43.223Z,18.57
2022-07-25T11:03:43.117Z,18.55
2022-07-25T11:04:43.117Z,18.58
2022-07-25T11:05:43.131Z,18.62
2022-07-25T11:06:43.087Z,18.74
2022-07-25T11:07:58.622Z,18.84
2022-07-25T11:08:44.132Z,18.86
2022-07-25T11:09:43.120Z,18.90
2022-07-25T11:10:43.041Z,18.92
2022-07-25T11:11:43.018Z,18.95
2022-07-25T11:12:43.030Z,18.98
2022-07-25T11:13:43.020Z,18.99
2022-07-25T11:14:43.020Z,19.02
2022-07-25T11:15:42.995Z,19.06
2022-07-25T11:16:43.086Z,19.06
2022-07-25T11:17:42.980Z,19.08
2022-07-25T11:18:43.000Z,19.11
2022-07-25T11:19:42.946Z,19.13
2022-07-25T11:20:42.962Z,19.14
2022-07-25T11:21:42.921Z,19.18
2022-07-25T11:22:42.922Z,19.18
2022-07-25T11:23:42.916Z,19.18
2022-07-25T11:24:42.895Z,19.20
2022-07-25T11:25:42.864Z,19.21
2022-07-25T11:26:42.906Z,19.21
2022-07-25T11:27:42.855Z,19.28
2022-07-25T11:28:42.836Z,19.29
2022-07-25T11:29:42.833Z,19.31
2022-07-25T11:30:42.848Z,19.33
2022-07-25T11:31:42.853Z,19.36
2022-07-25T11:32:43.172Z,19.40
2022-07-25T11:33:42.807Z,19.42
2022-07-25T11:34:42.774Z,19.43
2022-07-25T11:35:42.768Z,19.47
2022-07-25T11:36:42.750Z,19.47
2022-07-25T11:37:42.729Z,19.50
2022-07-25T11:38:42.789Z,19.55
2022-07-25T11:39:42.728Z,19.60
2022-07-25T11:40:42.741Z,19.60
2022-07-25T11:41:42.733Z,19.65
2022-07-25T11:42:42.725Z,19.70
2022-07-25T11:43:42.699Z,19.75
2022-07-25T11:44:47.234Z,19.80
2022-07-25T11:45:42.699Z,19.86
2022-07-25T11:46:42.692Z,19.87
2022-07-25T11:47:42.690Z,19.86
2022-07-25T11:48:42.734Z,19.83
2022-07-25T11:49:42.623Z,19.79
2022-07-25T11:50:42.644Z,19.75
2022-07-25T11:51:42.606Z,19.68
2022-07-25T11:52:42.637Z,19.66
2022-07-25T11:53:42.610Z,19.68
2022-07-25T11:54:42.616Z,19.72
2022-07-25T11:55:42.560Z,19.70
2022-07-25T11:56:43.604Z,19.70
2022-07-25T11:57:42.538Z,19.69
2022-07-25T11:58:42.530Z,19.66
2022-07-25T11:59:42.537Z,19.66
2022-07-25T12:00:42.512Z,19.69
2022-07-25T12:01:42.500Z,19.66
2022-07-25T12:02:42.616Z,19.72
2022-07-25T12:03:42.531Z,19.83
2022-07-25T12:04:42.463Z,19.91
2022-07-25T12:05:42.493Z,19.95
2022-07-25T12:06:42.453Z,20.03
2022-07-25T12:07:42.442Z,20.08
2022-07-25T12:08:42.444Z,20.06
2022-07-25T12:09:42.436Z,20.03
2022-07-25T12:10:42.424Z,19.98
2022-07-25T12:11:43.063Z,19.88
2022-07-25T12:12:43.872Z,19.84
2022-07-25T12:13:42.384Z,19.76
2022-07-25T12:14:43.005Z,19.75
2022-07-25T12:15:43.024Z,19.70
2022-07-25T12:16:42.464Z,19.63
2022-07-25T12:17:43.003Z,19.60
2022-07-25T12:18:42.366Z,19.55
2022-07-25T12:19:42.355Z,19.54
2022-07-25T12:20:42.348Z,19.48
2022-07-25T12:21:42.408Z,19.46
2022-07-25T12:22:42.299Z,19.40
2022-07-25T12:23:42.267Z,19.36
2022-07-25T12:24:42.280Z,19.35
2022-07-25T12:25:42.258Z,19.35
2022-07-25T12:26:42.307Z,19.35
2022-07-25T12:27:42.223Z,19.33
2022-07-25T12:28:43.305Z,19.32
2022-07-25T12:29:42.685Z,19.33
2022-07-25T12:30:42.276Z,19.31
2022-07-25T12:31:42.202Z,19.32
2022-07-25T12:32:42.212Z,19.31
2022-07-25T12:33:42.156Z,19.29
2022-07-25T12:34:43.246Z,19.28
2022-07-25T12:35:42.134Z,19.25
2022-07-25T12:36:42.116Z,19.21
2022-07-25T12:37:42.226Z,19.21
2022-07-25T12:38:42.135Z,19.17
2022-07-25T12:39:42.092Z,19.15
2022-07-25T12:40:42.074Z,19.13
2022-07-25T12:41:42.073Z,19.13
2022-07-25T12:42:42.064Z,19.11
2022-07-25T12:43:42.036Z,19.08
2022-07-25T12:44:42.059Z,19.05
2022-07-25T12:45:42.096Z,18.98
2022-07-25T12:46:47.388Z,18.94
2022-07-25T12:47:42.996Z,18.87
2022-07-25T12:48:42.025Z,18.82
2022-07-25T12:49:41.981Z,18.74
2022-07-25T12:50:42.788Z,18.68
2022-07-25T12:51:41.969Z,18.64
2022-07-25T12:52:41.948Z,18.61
2022-07-25T12:53:42.689Z,18.61
2022-07-25T12:54:41.930Z,18.55
2022-07-25T12:55:49.075Z,18.55
2022-07-25T12:57:53.512Z,18.54
2022-07-25T12:58:01.002Z,18.54
2022-07-25T12:58:59.576Z,18.54
2022-07-25T13:00:00.221Z,18.49
2022-07-25T13:01:02.249Z,18.49
2022-07-25T13:01:59.887Z,18.49